sensor_id;sensor_type;location;lat;lon;timestamp;pressure;altitude;pressure_sealevel;temperature;humidity
64821;BME280;51256;55.654;37.264;2022-09-29T00:00:16;98011.53;;;9.73;77.00
64821;BME280;51256;55.654;37.264;2022-09-29T00:02:41;98007.41;;;9.70;76.75
64821;BME280;51256;55.654;37.264;2022-09-29T00:05:07;98007.56;;;9.69;76.81
64821;BME280;51256;55.654;37.264;2022-09-29T00:07:33;98006.56;;;9.70;76.81
64821;BME280;51256;55.654;37.264;2022-09-29T00:09:58;98012.34;;;9.73;76.87
64821;BME280;51256;55.654;37.264;2022-09-29T00:12:24;98015.34;;;9.70;77.00
64821;BME280;51256;55.654;37.264;2022-09-29T00:14:50;98017.16;;;9.70;77.17
64821;BME280;51256;55.654;37.264;2022-09-29T00:17:15;98019.47;;;9.73;76.69
64821;BME280;51256;55.654;37.264;2022-09-29T00:19:41;98025.78;;;9.72;76.85
64821;BME280;51256;55.654;37.264;2022-09-29T00:22:06;98026.25;;;9.76;77.03
64821;BME280;51256;55.654;37.264;2022-09-29T00:24:32;98022.94;;;9.73;76.59
64821;BME280;51256;55.654;37.264;2022-09-29T00:26:59;98031.38;;;9.77;77.12
64821;BME280;51256;55.654;37.264;2022-09-29T00:29:24;98028.53;;;9.79;77.00
64821;BME280;51256;55.654;37.264;2022-09-29T00:31:50;98034.50;;;9.81;76.80
64821;BME280;51256;55.654;37.264;2022-09-29T00:34:15;98029.38;;;9.79;76.95
64821;BME280;51256;55.654;37.264;2022-09-29T00:36:41;98035.31;;;9.81;76.63
64821;BME280;51256;55.654;37.264;2022-09-29T00:39:06;98039.97;;;9.79;76.56
64821;BME280;51256;55.654;37.264;2022-09-29T00:41:34;98034.50;;;9.81;76.50
64821;BME280;51256;55.654;37.264;2022-09-29T00:52:00;98047.75;;;9.81;76.53
64821;BME280;51256;55.654;37.264;2022-09-29T00:54:31;98044.63;;;9.77;76.35
64821;BME280;51256;55.654;37.264;2022-09-29T00:57:03;98049.63;;;9.72;76.54
64821;BME280;51256;55.654;37.264;2022-09-29T00:59:40;98053.75;;;9.74;76.98
64821;BME280;51256;55.654;37.264;2022-09-29T01:02:07;98048.44;;;9.74;76.49
64821;BME280;51256;55.654;37.264;2022-09-29T01:04:33;98054.72;;;9.73;76.88
64821;BME280;51256;55.654;37.264;2022-09-29T01:06:59;98049.09;;;9.77;76.81
64821;BME280;51256;55.654;37.264;2022-09-29T01:09:31;98051.56;;;9.78;76.80
64821;BME280;51256;55.654;37.264;2022-09-29T01:11:58;98060.00;;;9.82;76.76
64821;BME280;51256;55.654;37.264;2022-09-29T01:14:25;98047.94;;;9.79;76.82
64821;BME280;51256;55.654;37.264;2022-09-29T01:16:52;98045.44;;;9.78;76.69
64821;BME280;51256;55.654;37.264;2022-09-29T01:19:41;98042.34;;;9.74;76.32
64821;BME280;51256;55.654;37.264;2022-09-29T01:31:07;98063.84;;;9.79;76.44
64821;BME280;51256;55.654;37.264;2022-09-29T01:41:17;98063.84;;;9.79;76.85
64821;BME280;51256;55.654;37.264;2022-09-29T01:44:35;98067.13;;;9.81;76.74
64821;BME280;51256;55.654;37.264;2022-09-29T01:46:45;98066.63;;;9.78;76.46
64821;BME280;51256;55.654;37.264;2022-09-29T01:49:13;98072.97;;;9.77;76.65
64821;BME280;51256;55.654;37.264;2022-09-29T01:54:43;98080.06;;;9.76;76.52
64821;BME280;51256;55.654;37.264;2022-09-29T01:59:51;98083.06;;;9.73;76.41
64821;BME280;51256;55.654;37.264;2022-09-29T02:02:25;98082.09;;;9.66;76.34
64821;BME280;51256;55.654;37.264;2022-09-29T02:04:54;98080.13;;;9.68;76.69
64821;BME280;51256;55.654;37.264;2022-09-29T02:07:43;98074.63;;;9.69;76.61
64821;BME280;51256;55.654;37.264;2022-09-29T02:10:18;98072.31;;;9.66;76.60
64821;BME280;51256;55.654;37.264;2022-09-29T02:12:49;98063.44;;;9.59;76.27
64821;BME280;51256;55.654;37.264;2022-09-29T02:15:21;98068.19;;;9.64;76.62
64821;BME280;51256;55.654;37.264;2022-09-29T02:17:49;98070.84;;;9.64;76.57
64821;BME280;51256;55.654;37.264;2022-09-29T02:20:14;98066.53;;;9.63;76.65
64821;BME280;51256;55.654;37.264;2022-09-29T02:22:40;98060.44;;;9.62;77.11
64821;BME280;51256;55.654;37.264;2022-09-29T02:25:08;98075.50;;;9.62;76.72
64821;BME280;51256;55.654;37.264;2022-09-29T02:27:35;98062.75;;;9.57;76.59
64821;BME280;51256;55.654;37.264;2022-09-29T02:30:02;98074.03;;;9.59;76.54
64821;BME280;51256;55.654;37.264;2022-09-29T02:32:32;98083.94;;;9.65;76.65
64821;BME280;51256;55.654;37.264;2022-09-29T02:34:59;98074.97;;;9.66;76.44
64821;BME280;51256;55.654;37.264;2022-09-29T02:45:52;98077.13;;;9.63;76.84
64821;BME280;51256;55.654;37.264;2022-09-29T02:56:49;98082.22;;;9.72;76.03
64821;BME280;51256;55.654;37.264;2022-09-29T02:59:25;98077.78;;;9.73;76.20
64821;BME280;51256;55.654;37.264;2022-09-29T03:01:54;98083.72;;;9.75;76.27
64821;BME280;51256;55.654;37.264;2022-09-29T03:04:23;98091.50;;;9.77;76.04
64821;BME280;51256;55.654;37.264;2022-09-29T03:06:49;98093.00;;;9.79;75.78
64821;BME280;51256;55.654;37.264;2022-09-29T03:09:14;98094.31;;;9.75;75.64
64821;BME280;51256;55.654;37.264;2022-09-29T03:11:40;98094.16;;;9.77;75.86
64821;BME280;51256;55.654;37.264;2022-09-29T03:14:06;98089.66;;;9.77;76.08
64821;BME280;51256;55.654;37.264;2022-09-29T03:16:33;98095.78;;;9.78;75.72
64821;BME280;51256;55.654;37.264;2022-09-29T03:18:59;98090.66;;;9.76;76.01
64821;BME280;51256;55.654;37.264;2022-09-29T03:21:25;98095.16;;;9.76;75.71
64821;BME280;51256;55.654;37.264;2022-09-29T03:23:51;98100.09;;;9.79;75.73
64821;BME280;51256;55.654;37.264;2022-09-29T03:26:16;98100.28;;;9.77;75.57
64821;BME280;51256;55.654;37.264;2022-09-29T03:28:42;98103.91;;;9.76;75.13
64821;BME280;51256;55.654;37.264;2022-09-29T03:31:09;98108.88;;;9.79;75.44
64821;BME280;51256;55.654;37.264;2022-09-29T03:33:35;98102.59;;;9.80;75.39
64821;BME280;51256;55.654;37.264;2022-09-29T03:36:03;98102.09;;;9.77;75.09
64821;BME280;51256;55.654;37.264;2022-09-29T03:38:30;98112.47;;;9.86;75.56
64821;BME280;51256;55.654;37.264;2022-09-29T03:40:55;98118.25;;;9.90;75.06
64821;BME280;51256;55.654;37.264;2022-09-29T03:43:21;98123.56;;;9.90;75.12
64821;BME280;51256;55.654;37.264;2022-09-29T03:45:51;98123.56;;;9.90;74.73
64821;BME280;51256;55.654;37.264;2022-09-29T03:48:18;98124.41;;;9.90;74.99
64821;BME280;51256;55.654;37.264;2022-09-29T03:50:45;98124.41;;;9.90;75.04
64821;BME280;51256;55.654;37.264;2022-09-29T03:53:12;98126.06;;;9.92;75.08
64821;BME280;51256;55.654;37.264;2022-09-29T03:55:39;98121.75;;;9.90;74.60
64821;BME280;51256;55.654;37.264;2022-09-29T03:58:05;98114.63;;;9.91;74.99
64821;BME280;51256;55.654;37.264;2022-09-29T04:00:31;98121.56;;;9.92;74.60
64821;BME280;51256;55.654;37.264;2022-09-29T04:02:57;98125.22;;;9.91;74.92
64821;BME280;51256;55.654;37.264;2022-09-29T04:05:22;98110.84;;;9.85;74.88
64821;BME280;51256;55.654;37.264;2022-09-29T04:07:48;98118.94;;;9.92;74.53
64821;BME280;51256;55.654;37.264;2022-09-29T04:10:13;98127.84;;;9.99;74.67
64821;BME280;51256;55.654;37.264;2022-09-29T04:12:39;98121.38;;;10.02;75.08
64821;BME280;51256;55.654;37.264;2022-09-29T04:15:05;98125.69;;;10.03;74.81
64821;BME280;51256;55.654;37.264;2022-09-29T04:17:31;98132.31;;;9.99;74.23
64821;BME280;51256;55.654;37.264;2022-09-29T04:19:56;98124.03;;;9.94;74.52
64821;BME280;51256;55.654;37.264;2022-09-29T04:22:22;98124.41;;;9.90;74.56
64821;BME280;51256;55.654;37.264;2022-09-29T04:24:47;98127.66;;;10.01;74.66
64821;BME280;51256;55.654;37.264;2022-09-29T04:27:14;98124.34;;;9.99;74.34
64821;BME280;51256;55.654;37.264;2022-09-29T04:29:40;98123.88;;;9.95;74.06
64821;BME280;51256;55.654;37.264;2022-09-29T04:32:05;98127.38;;;9.96;74.73
64821;BME280;51256;55.654;37.264;2022-09-29T04:34:31;98134.25;;;10.05;75.71
64821;BME280;51256;55.654;37.264;2022-09-29T04:36:57;98137.69;;;10.14;75.44
64821;BME280;51256;55.654;37.264;2022-09-29T04:39:23;98134.56;;;10.10;75.32
64821;BME280;51256;55.654;37.264;2022-09-29T04:41:48;98130.31;;;10.01;74.75
64821;BME280;51256;55.654;37.264;2022-09-29T04:44:14;98136.59;;;10.08;75.48
64821;BME280;51256;55.654;37.264;2022-09-29T04:46:39;98128.56;;;10.48;75.19
64821;BME280;51256;55.654;37.264;2022-09-29T04:49:05;98129.72;;;10.77;74.05
64821;BME280;51256;55.654;37.264;2022-09-29T04:51:31;98110.41;;;10.83;73.11
64821;BME280;51256;55.654;37.264;2022-09-29T04:53:58;98104.44;;;10.81;72.74
64821;BME280;51256;55.654;37.264;2022-09-29T04:56:24;98105.97;;;10.75;72.59
64821;BME280;51256;55.654;37.264;2022-09-29T04:58:49;98122.47;;;10.70;72.42
64821;BME280;51256;55.654;37.264;2022-09-29T05:01:15;98139.19;;;10.71;73.13
64821;BME280;51256;55.654;37.264;2022-09-29T05:03:41;98146.34;;;10.70;72.57
64821;BME280;51256;55.654;37.264;2022-09-29T05:06:08;98149.00;;;10.70;73.05
64821;BME280;51256;55.654;37.264;2022-09-29T05:08:34;98147.88;;;10.65;72.63
64821;BME280;51256;55.654;37.264;2022-09-29T05:11:04;98154.94;;;10.73;72.76
64821;BME280;51256;55.654;37.264;2022-09-29T05:13:30;98160.72;;;10.76;72.48
64821;BME280;51256;55.654;37.264;2022-09-29T05:15:56;98168.91;;;10.66;72.43
64821;BME280;51256;55.654;37.264;2022-09-29T05:18:23;98169.16;;;10.57;72.61
64821;BME280;51256;55.654;37.264;2022-09-29T05:20:48;98161.44;;;10.47;73.02
64821;BME280;51256;55.654;37.264;2022-09-29T05:23:14;98155.34;;;10.38;72.92
64821;BME280;51256;55.654;37.264;2022-09-29T05:25:39;98167.78;;;10.37;72.74
64821;BME280;51256;55.654;37.264;2022-09-29T05:28:05;98172.41;;;10.35;72.97
64821;BME280;51256;55.654;37.264;2022-09-29T05:30:30;98155.25;;;10.23;72.83
64821;BME280;51256;55.654;37.264;2022-09-29T05:32:56;98169.13;;;10.25;73.61
64821;BME280;51256;55.654;37.264;2022-09-29T05:35:21;98177.94;;;10.26;73.38
64821;BME280;51256;55.654;37.264;2022-09-29T05:37:47;98165.66;;;10.25;73.12
64821;BME280;51256;55.654;37.264;2022-09-29T05:40:12;98160.88;;;10.20;74.05
64821;BME280;51256;55.654;37.264;2022-09-29T05:42:38;98175.41;;;10.32;73.85
64821;BME280;51256;55.654;37.264;2022-09-29T05:45:05;98172.91;;;10.39;74.41
64821;BME280;51256;55.654;37.264;2022-09-29T05:47:32;98181.00;;;10.46;74.38
64821;BME280;51256;55.654;37.264;2022-09-29T05:49:57;98174.84;;;10.45;74.25
64821;BME280;51256;55.654;37.264;2022-09-29T05:52:23;98179.81;;;10.48;74.12
64821;BME280;51256;55.654;37.264;2022-09-29T05:54:48;98173.84;;;10.46;74.49
64821;BME280;51256;55.654;37.264;2022-09-29T05:57:15;98177.97;;;10.49;73.98
64821;BME280;51256;55.654;37.264;2022-09-29T05:59:41;98182.50;;;10.40;74.03
64821;BME280;51256;55.654;37.264;2022-09-29T06:02:07;98172.09;;;10.30;74.42
64821;BME280;51256;55.654;37.264;2022-09-29T06:04:33;98179.91;;;10.23;74.62
64821;BME280;51256;55.654;37.264;2022-09-29T06:07:00;98174.63;;;10.23;74.08
64821;BME280;51256;55.654;37.264;2022-09-29T06:09:25;98181.91;;;10.21;75.32
64821;BME280;51256;55.654;37.264;2022-09-29T06:11:50;98175.09;;;10.27;74.38
64821;BME280;51256;55.654;37.264;2022-09-29T06:14:16;98170.78;;;10.26;74.73
64821;BME280;51256;55.654;37.264;2022-09-29T06:16:41;98180.03;;;10.38;74.88
64821;BME280;51256;55.654;37.264;2022-09-29T06:19:08;98176.75;;;10.28;74.63
64821;BME280;51256;55.654;37.264;2022-09-29T06:21:35;98185.00;;;10.33;75.08
64821;BME280;51256;55.654;37.264;2022-09-29T06:24:02;98188.97;;;10.46;75.40
64821;BME280;51256;55.654;37.264;2022-09-29T06:26:28;98179.81;;;10.48;75.50
64821;BME280;51256;55.654;37.264;2022-09-29T06:28:55;98188.03;;;10.62;74.89
64821;BME280;51256;55.654;37.264;2022-09-29T06:31:24;98178.81;;;10.73;74.85
64821;BME280;51256;55.654;37.264;2022-09-29T06:33:49;98174.69;;;10.70;74.40
64821;BME280;51256;55.654;37.264;2022-09-29T06:36:34;98181.97;;;10.76;74.47
64821;BME280;51256;55.654;37.264;2022-09-29T06:39:19;98187.56;;;10.81;74.74
64821;BME280;51256;55.654;37.264;2022-09-29T06:41:45;98188.41;;;10.82;74.32
64821;BME280;51256;55.654;37.264;2022-09-29T06:44:19;98189.97;;;10.91;74.66
64821;BME280;51256;55.654;37.264;2022-09-29T06:46:44;98186.72;;;11.04;74.40
64821;BME280;51256;55.654;37.264;2022-09-29T06:49:13;98189.88;;;11.23;73.67
64821;BME280;51256;55.654;37.264;2022-09-29T06:51:42;98193.09;;;11.33;73.68
64821;BME280;51256;55.654;37.264;2022-09-29T06:54:09;98194.63;;;11.50;73.21
64821;BME280;51256;55.654;37.264;2022-09-29T06:56:35;98206.44;;;11.63;72.77
64821;BME280;51256;55.654;37.264;2022-09-29T06:59:00;98205.44;;;11.64;72.62
64821;BME280;51256;55.654;37.264;2022-09-29T07:01:26;98212.81;;;11.77;72.21
64821;BME280;51256;55.654;37.264;2022-09-29T07:03:51;98210.41;;;11.82;72.45
64821;BME280;51256;55.654;37.264;2022-09-29T07:06:17;98218.13;;;11.77;72.34
64821;BME280;51256;55.654;37.264;2022-09-29T07:08:42;98210.41;;;11.67;72.37
64821;BME280;51256;55.654;37.264;2022-09-29T07:11:09;98212.31;;;11.58;72.71
64821;BME280;51256;55.654;37.264;2022-09-29T07:13:35;98210.28;;;11.60;73.09
64821;BME280;51256;55.654;37.264;2022-09-29T07:16:09;98203.63;;;11.64;72.84
64821;BME280;51256;55.654;37.264;2022-09-29T07:18:36;98209.31;;;11.91;72.39
64821;BME280;51256;55.654;37.264;2022-09-29T07:21:08;98215.38;;;12.30;71.92
64821;BME280;51256;55.654;37.264;2022-09-29T07:23:37;98208.25;;;12.52;71.10
64821;BME280;51256;55.654;37.264;2022-09-29T07:26:04;98224.50;;;12.79;70.40
64821;BME280;51256;55.654;37.264;2022-09-29T07:28:30;98221.69;;;13.02;70.04
64821;BME280;51256;55.654;37.264;2022-09-29T07:31:01;98229.78;;;13.16;69.63
64821;BME280;51256;55.654;37.264;2022-09-29T07:33:27;98234.50;;;13.13;68.93
64821;BME280;51256;55.654;37.264;2022-09-29T07:35:53;98246.53;;;13.09;69.22
64821;BME280;51256;55.654;37.264;2022-09-29T07:38:20;98245.81;;;13.01;69.86
64821;BME280;51256;55.654;37.264;2022-09-29T07:40:45;98248.19;;;12.89;69.60
64821;BME280;51256;55.654;37.264;2022-09-29T07:43:11;98252.09;;;12.71;70.50
64821;BME280;51256;55.654;37.264;2022-09-29T07:45:36;98250.81;;;12.67;70.50
64821;BME280;51256;55.654;37.264;2022-09-29T07:48:02;98250.47;;;12.55;70.66
64821;BME280;51256;55.654;37.264;2022-09-29T07:50:28;98253.41;;;12.45;70.80
64821;BME280;51256;55.654;37.264;2022-09-29T07:52:53;98251.50;;;12.39;71.09
64821;BME280;51256;55.654;37.264;2022-09-29T07:55:19;98250.94;;;12.44;71.21
64821;BME280;51256;55.654;37.264;2022-09-29T07:57:48;98255.47;;;12.43;70.84
64821;BME280;51256;55.654;37.264;2022-09-29T08:00:14;98265.91;;;12.45;71.14
64821;BME280;51256;55.654;37.264;2022-09-29T08:02:41;98267.38;;;12.47;71.14
64821;BME280;51256;55.654;37.264;2022-09-29T08:05:08;98273.47;;;12.63;70.90
64821;BME280;51256;55.654;37.264;2022-09-29T08:07:34;98273.19;;;12.73;70.95
64821;BME280;51256;55.654;37.264;2022-09-29T08:09:59;98271.25;;;12.81;70.69
64821;BME280;51256;55.654;37.264;2022-09-29T08:12:25;98277.78;;;12.79;70.36
64821;BME280;51256;55.654;37.264;2022-09-29T08:14:51;98285.13;;;12.77;70.87
64821;BME280;51256;55.654;37.264;2022-09-29T08:17:16;98284.94;;;12.78;70.67
64821;BME280;51256;55.654;37.264;2022-09-29T08:19:42;98293.56;;;12.80;70.56
64821;BME280;51256;55.654;37.264;2022-09-29T08:22:07;98304.22;;;12.80;70.81
64821;BME280;51256;55.654;37.264;2022-09-29T08:24:33;98296.94;;;12.89;70.61
64821;BME280;51256;55.654;37.264;2022-09-29T08:27:01;98302.97;;;12.98;70.60
64821;BME280;51256;55.654;37.264;2022-09-29T08:29:29;98301.25;;;12.90;70.50
64821;BME280;51256;55.654;37.264;2022-09-29T08:31:54;98303.31;;;12.88;70.74
64821;BME280;51256;55.654;37.264;2022-09-29T08:34:21;98300.09;;;12.78;70.87
64821;BME280;51256;55.654;37.264;2022-09-29T08:36:46;98313.59;;;12.76;71.17
64821;BME280;51256;55.654;37.264;2022-09-29T08:39:12;98313.78;;;12.75;71.13
64821;BME280;51256;55.654;37.264;2022-09-29T08:41:52;98319.72;;;12.77;70.93
64821;BME280;51256;55.654;37.264;2022-09-29T08:44:41;98325.06;;;12.77;71.55
64821;BME280;51256;55.654;37.264;2022-09-29T08:47:31;98317.66;;;12.72;71.34
64821;BME280;51256;55.654;37.264;2022-09-29T08:50:02;98323.53;;;12.68;71.57
64821;BME280;51256;55.654;37.264;2022-09-29T08:52:32;98319.78;;;12.62;71.67
64821;BME280;51256;55.654;37.264;2022-09-29T08:57:42;98331.09;;;12.86;71.56
64821;BME280;51256;55.654;37.264;2022-09-29T09:00:26;98331.19;;;12.92;71.06
64821;BME280;51256;55.654;37.264;2022-09-29T09:03:15;98332.91;;;13.00;71.16
64821;BME280;51256;55.654;37.264;2022-09-29T09:20:01;98346.59;;;13.49;70.68
64821;BME280;51256;55.654;37.264;2022-09-29T09:22:40;98351.00;;;13.63;70.00
64821;BME280;51256;55.654;37.264;2022-09-29T09:25:29;98349.19;;;13.64;70.40
64821;BME280;51256;55.654;37.264;2022-09-29T09:28:05;98347.13;;;13.66;70.09
64821;BME280;51256;55.654;37.264;2022-09-29T09:36:21;98355.81;;;13.74;69.74
64821;BME280;51256;55.654;37.264;2022-09-29T09:38:58;98361.34;;;13.73;69.60
64821;BME280;51256;55.654;37.264;2022-09-29T09:41:27;98358.75;;;13.58;69.53
64821;BME280;51256;55.654;37.264;2022-09-29T09:44:04;98356.06;;;13.36;70.17
64821;BME280;51256;55.654;37.264;2022-09-29T09:46:37;98355.56;;;13.26;70.56
64821;BME280;51256;55.654;37.264;2022-09-29T09:49:38;98350.84;;;13.28;70.44
64821;BME280;51256;55.654;37.264;2022-09-29T09:52:12;98355.16;;;13.29;71.02
64821;BME280;51256;55.654;37.264;2022-09-29T09:54:52;98356.63;;;13.32;70.65
64821;BME280;51256;55.654;37.264;2022-09-29T10:00:12;98349.91;;;13.36;70.71
64821;BME280;51256;55.654;37.264;2022-09-29T10:03:05;98354.91;;;13.39;70.71
64821;BME280;51256;55.654;37.264;2022-09-29T10:06:06;98359.03;;;13.41;70.53
64821;BME280;51256;55.654;37.264;2022-09-29T10:08:37;98351.66;;;13.43;70.13
64821;BME280;51256;55.654;37.264;2022-09-29T10:11:25;98368.38;;;13.52;69.99
64821;BME280;51256;55.654;37.264;2022-09-29T10:13:59;98367.97;;;13.55;69.92
64821;BME280;51256;55.654;37.264;2022-09-29T10:16:37;98378.69;;;13.62;69.73
64821;BME280;51256;55.654;37.264;2022-09-29T10:19:05;98388.50;;;13.55;69.90
64821;BME280;51256;55.654;37.264;2022-09-29T10:23:57;98391.97;;;13.55;69.77
64821;BME280;51256;55.654;37.264;2022-09-29T10:26:44;98398.31;;;13.54;69.77
64821;BME280;51256;55.654;37.264;2022-09-29T10:29:38;98402.84;;;13.54;69.92
64821;BME280;51256;55.654;37.264;2022-09-29T10:32:21;98406.69;;;13.51;70.08
64821;BME280;51256;55.654;37.264;2022-09-29T10:35:03;98411.19;;;13.51;69.88
64821;BME280;51256;55.654;37.264;2022-09-29T10:37:36;98413.84;;;13.51;70.08
64821;BME280;51256;55.654;37.264;2022-09-29T10:42:37;98426.19;;;13.52;69.48
64821;BME280;51256;55.654;37.264;2022-09-29T10:47:31;98432.22;;;13.60;69.07
64821;BME280;51256;55.654;37.264;2022-09-29T10:50:20;98429.66;;;13.67;69.57
64821;BME280;51256;55.654;37.264;2022-09-29T10:52:57;98427.91;;;14.03;68.94
64821;BME280;51256;55.654;37.264;2022-09-29T10:55:28;98426.63;;;14.49;67.43
64821;BME280;51256;55.654;37.264;2022-09-29T10:57:59;98437.38;;;14.62;67.36
64821;BME280;51256;55.654;37.264;2022-09-29T11:00:37;98429.75;;;14.52;67.54
64821;BME280;51256;55.654;37.264;2022-09-29T11:03:22;98426.97;;;14.39;67.54
64821;BME280;51256;55.654;37.264;2022-09-29T11:05:51;98433.03;;;14.54;67.29
64821;BME280;51256;55.654;37.264;2022-09-29T11:08:18;98447.38;;;14.75;66.93
64821;BME280;51256;55.654;37.264;2022-09-29T11:11:18;98445.63;;;14.96;66.10
64821;BME280;51256;55.654;37.264;2022-09-29T11:13:45;98446.28;;;15.04;65.71
64821;BME280;51256;55.654;37.264;2022-09-29T11:16:15;98446.38;;;15.18;65.36
64821;BME280;51256;55.654;37.264;2022-09-29T11:18:43;98453.97;;;15.21;64.56
64821;BME280;51256;55.654;37.264;2022-09-29T11:26:58;98448.03;;;15.19;65.31
64821;BME280;51256;55.654;37.264;2022-09-29T11:29:49;98459.38;;;15.28;64.58
64821;BME280;51256;55.654;37.264;2022-09-29T11:34:58;98459.81;;;15.38;64.09
64821;BME280;51256;55.654;37.264;2022-09-29T11:40:23;98462.78;;;15.63;63.54
64821;BME280;51256;55.654;37.264;2022-09-29T11:43:00;98471.25;;;15.80;63.23
64821;BME280;51256;55.654;37.264;2022-09-29T11:45:37;98467.59;;;15.95;62.90
64821;BME280;51256;55.654;37.264;2022-09-29T11:48:29;98469.06;;;16.31;62.45
64821;BME280;51256;55.654;37.264;2022-09-29T11:59:59;98481.81;;;15.95;62.29
64821;BME280;51256;55.654;37.264;2022-09-29T12:05:18;98494.38;;;15.39;63.23
64821;BME280;51256;55.654;37.264;2022-09-29T12:11:25;98495.41;;;15.03;64.04
64821;BME280;51256;55.654;37.264;2022-09-29T12:16:37;98492.28;;;14.93;64.75
64821;BME280;51256;55.654;37.264;2022-09-29T12:19:14;98492.28;;;14.93;64.60
64821;BME280;51256;55.654;37.264;2022-09-29T12:21:47;98495.81;;;14.94;64.27
64821;BME280;51256;55.654;37.264;2022-09-29T12:26:55;98497.19;;;14.89;64.63
64821;BME280;51256;55.654;37.264;2022-09-29T12:32:32;98491.94;;;14.74;64.84
64821;BME280;51256;55.654;37.264;2022-09-29T12:35:24;98513.22;;;14.89;64.84
64821;BME280;51256;55.654;37.264;2022-09-29T12:37:59;98510.25;;;15.06;64.34
64821;BME280;51256;55.654;37.264;2022-09-29T12:48:28;98525.75;;;15.66;63.07
64821;BME280;51256;55.654;37.264;2022-09-29T12:54:02;98526.97;;;15.63;63.05
64821;BME280;51256;55.654;37.264;2022-09-29T13:07:18;98531.75;;;15.26;63.71
64821;BME280;51256;55.654;37.264;2022-09-29T13:09:58;98534.59;;;15.24;63.68
64821;BME280;51256;55.654;37.264;2022-09-29T13:23:34;98543.91;;;14.94;64.87
64821;BME280;51256;55.654;37.264;2022-09-29T13:26:30;98547.47;;;15.07;64.57
64821;BME280;51256;55.654;37.264;2022-09-29T13:29:00;98541.72;;;15.11;64.22
64821;BME280;51256;55.654;37.264;2022-09-29T13:31:30;98551.19;;;15.13;64.27
64821;BME280;51256;55.654;37.264;2022-09-29T13:34:02;98546.06;;;15.12;64.12
64821;BME280;51256;55.654;37.264;2022-09-29T13:36:32;98549.53;;;15.12;64.29
64821;BME280;51256;55.654;37.264;2022-09-29T13:39:04;98550.59;;;15.11;64.42
64821;BME280;51256;55.654;37.264;2022-09-29T13:46:40;98557.00;;;15.17;64.64
64821;BME280;51256;55.654;37.264;2022-09-29T13:49:14;98557.44;;;15.20;64.59
64821;BME280;51256;55.654;37.264;2022-09-29T13:51:56;98566.53;;;15.26;64.58
64821;BME280;51256;55.654;37.264;2022-09-29T13:54:37;98561.19;;;15.26;64.19
64821;BME280;51256;55.654;37.264;2022-09-29T13:59:44;98566.66;;;15.18;64.28
64821;BME280;51256;55.654;37.264;2022-09-29T14:02:40;98572.69;;;15.27;64.28
64821;BME280;51256;55.654;37.264;2022-09-29T14:07:50;98583.16;;;15.21;64.22
64821;BME280;51256;55.654;37.264;2022-09-29T14:10:44;98570.66;;;15.00;64.71
64821;BME280;51256;55.654;37.264;2022-09-29T14:21:51;98584.06;;;16.39;61.58
64821;BME280;51256;55.654;37.264;2022-09-29T14:27:31;98592.91;;;16.40;61.72
64821;BME280;51256;55.654;37.264;2022-09-29T14:35:39;98592.53;;;16.63;60.50
64821;BME280;51256;55.654;37.264;2022-09-29T14:43:55;98589.63;;;16.44;60.37
64821;BME280;51256;55.654;37.264;2022-09-29T14:55:33;98595.16;;;15.04;63.57
64821;BME280;51256;55.654;37.264;2022-09-29T15:03:47;98606.53;;;13.89;66.79
64821;BME280;51256;55.654;37.264;2022-09-29T15:06:23;98622.56;;;13.74;66.88
64821;BME280;51256;55.654;37.264;2022-09-29T15:11:32;98624.22;;;13.45;68.04
64821;BME280;51256;55.654;37.264;2022-09-29T15:14:25;98629.16;;;13.34;68.30
64821;BME280;51256;55.654;37.264;2022-09-29T15:17:04;98624.63;;;13.19;68.92
64821;BME280;51256;55.654;37.264;2022-09-29T15:27:29;98648.69;;;12.96;69.15
64821;BME280;51256;55.654;37.264;2022-09-29T15:29:56;98649.38;;;12.90;69.79
64821;BME280;51256;55.654;37.264;2022-09-29T15:32:27;98647.72;;;12.89;69.95
64821;BME280;51256;55.654;37.264;2022-09-29T15:35:02;98646.44;;;12.85;69.71
64821;BME280;51256;55.654;37.264;2022-09-29T15:38:25;98654.78;;;12.81;69.73
64821;BME280;51256;55.654;37.264;2022-09-29T15:41:12;98663.00;;;12.72;70.22
64821;BME280;51256;55.654;37.264;2022-09-29T15:46:26;98665.91;;;12.62;70.45
64821;BME280;51256;55.654;37.264;2022-09-29T15:51:32;98677.72;;;12.59;70.68
64821;BME280;51256;55.654;37.264;2022-09-29T15:53:59;98665.59;;;12.57;70.56
64821;BME280;51256;55.654;37.264;2022-09-29T15:56:31;98670.28;;;12.55;70.66
64821;BME280;51256;55.654;37.264;2022-09-29T15:58:57;98674.94;;;12.53;70.73
64821;BME280;51256;55.654;37.264;2022-09-29T16:01:23;98683.59;;;12.55;70.39
64821;BME280;51256;55.654;37.264;2022-09-29T16:03:52;98672.75;;;12.56;70.50
64821;BME280;51256;55.654;37.264;2022-09-29T16:06:32;98680.75;;;12.56;70.02
64821;BME280;51256;55.654;37.264;2022-09-29T16:09:04;98685.25;;;12.56;70.15
64821;BME280;51256;55.654;37.264;2022-09-29T16:11:37;98695.91;;;12.56;70.33
64821;BME280;51256;55.654;37.264;2022-09-29T16:14:27;98697.72;;;12.55;70.09
64821;BME280;51256;55.654;37.264;2022-09-29T16:16:55;98699.09;;;12.51;70.55
64821;BME280;51256;55.654;37.264;2022-09-29T16:19:29;98696.13;;;12.46;70.24
64821;BME280;51256;55.654;37.264;2022-09-29T16:22:02;98702.78;;;12.42;70.45
64821;BME280;51256;55.654;37.264;2022-09-29T16:24:32;98708.47;;;12.39;70.78
64821;BME280;51256;55.654;37.264;2022-09-29T16:26:59;98715.66;;;12.30;70.85
64821;BME280;51256;55.654;37.264;2022-09-29T16:29:29;98710.53;;;12.28;70.97
64821;BME280;51256;55.654;37.264;2022-09-29T16:31:55;98714.50;;;12.24;71.21
64821;BME280;51256;55.654;37.264;2022-09-29T16:34:24;98721.69;;;12.24;70.98
64821;BME280;51256;55.654;37.264;2022-09-29T16:36:55;98715.88;;;12.20;70.95
64821;BME280;51256;55.654;37.264;2022-09-29T16:39:27;98710.59;;;12.12;71.20
64821;BME280;51256;55.654;37.264;2022-09-29T16:41:55;98721.56;;;12.17;71.29